sensor_id;sensor_type;location;lat;lon;timestamp;pressure;altitude;pressure_sealevel;temperature;humidity
45253;BME280;63171;50.520;30.486;2023-07-28T00:02:28;98977.50;;;17.61;100.00
45253;BME280;63171;50.520;30.486;2023-07-28T00:03:19;98981.16;;;17.60;100.00
45253;BME280;63171;50.520;30.486;2023-07-28T00:04:08;98978.34;;;17.61;100.00
45253;BME280;63171;50.520;30.486;2023-07-28T00:04:59;98980.31;;;17.59;100.00
45253;BME280;63171;50.520;30.486;2023-07-28T00:05:50;98970.06;;;17.56;100.00
45253;BME280;63171;50.520;30.486;2023-07-28T00:06:41;98973.22;;;17.60;100.00
45253;BME280;63171;50.520;30.486;2023-07-28T00:07:33;98974.19;;;17.59;100.00
45253;BME280;63171;50.520;30.486;2023-07-28T00:08:25;98972.22;;;17.53;100.00
45253;BME280;63171;50.520;30.486;2023-07-28T00:09:16;98977.16;;;17.48;100.00
45253;BME280;63171;50.520;30.486;2023-07-28T00:10:06;98975.50;;;17.47;100.00
45253;BME280;63171;50.520;30.486;2023-07-28T00:10:55;98978.91;;;17.31;100.00
45253;BME280;63171;50.520;30.486;2023-07-28T00:11:46;98978.41;;;17.27;100.00
45253;BME280;63171;50.520;30.486;2023-07-28T00:12:36;98970.97;;;17.31;100.00
45253;BME280;63171;50.520;30.486;2023-07-28T00:13:27;98969.03;;;17.41;100.00
45253;BME280;63171;50.520;30.486;2023-07-28T00:14:17;98971.19;;;17.37;100.00
45253;BME280;63171;50.520;30.486;2023-07-28T00:15:07;98972.34;;;17.43;100.00
45253;BME280;63171;50.520;30.486;2023-07-28T00:15:58;98971.38;;;17.52;100.00
45253;BME280;63171;50.520;30.486;2023-07-28T00:16:48;98962.25;;;17.47;100.00
45253;BME280;63171;50.520;30.486;2023-07-28T00:17:38;98972.69;;;17.48;100.00
45253;BME280;63171;50.520;30.486;2023-07-28T00:18:28;98965.72;;;17.47;100.00
45253;BME280;63171;50.520;30.486;2023-07-28T00:19:18;98962.75;;;17.42;100.00
45253;BME280;63171;50.520;30.486;2023-07-28T00:20:11;98974.50;;;17.48;100.00
45253;BME280;63171;50.520;30.486;2023-07-28T00:21:00;98975.19;;;17.50;100.00
45253;BME280;63171;50.520;30.486;2023-07-28T00:21:51;98972.03;;;17.46;100.00
45253;BME280;63171;50.520;30.486;2023-07-28T00:22:43;98963.38;;;17.36;100.00
45253;BME280;63171;50.520;30.486;2023-07-28T00:23:32;98975.94;;;17.26;100.00
45253;BME280;63171;50.520;30.486;2023-07-28T00:24:22;98978.75;;;17.32;100.00
45253;BME280;63171;50.520;30.486;2023-07-28T00:25:13;98971.97;;;17.30;100.00
45253;BME280;63171;50.520;30.486;2023-07-28T00:26:03;98967.78;;;17.19;100.00
45253;BME280;63171;50.520;30.486;2023-07-28T00:26:52;98969.81;;;17.25;100.00
45253;BME280;63171;50.520;30.486;2023-07-28T00:27:43;98965.31;;;17.18;100.00
45253;BME280;63171;50.520;30.486;2023-07-28T00:28:35;98963.84;;;17.23;100.00
45253;BME280;63171;50.520;30.486;2023-07-28T00:29:24;98955.88;;;17.15;100.00
45253;BME280;63171;50.520;30.486;2023-07-28T00:30:15;98959.34;;;17.16;100.00
45253;BME280;63171;50.520;30.486;2023-07-28T00:31:05;98955.88;;;17.15;100.00
45253;BME280;63171;50.520;30.486;2023-07-28T00:31:55;98960.22;;;17.24;100.00
45253;BME280;63171;50.520;30.486;2023-07-28T00:32:46;98958.84;;;17.20;100.00
45253;BME280;63171;50.520;30.486;2023-07-28T00:33:37;98964.81;;;17.22;100.00
45253;BME280;63171;50.520;30.486;2023-07-28T00:34:27;98965.78;;;17.13;100.00
45253;BME280;63171;50.520;30.486;2023-07-28T00:35:17;98962.66;;;17.18;100.00
45253;BME280;63171;50.520;30.486;2023-07-28T00:36:08;98962.34;;;17.21;100.00
45253;BME280;63171;50.520;30.486;2023-07-28T00:36:57;98966.78;;;17.12;100.00
45253;BME280;63171;50.520;30.486;2023-07-28T00:37:48;98958.84;;;17.20;100.00
45253;BME280;63171;50.520;30.486;2023-07-28T00:38:39;98967.16;;;17.25;100.00
45253;BME280;63171;50.520;30.486;2023-07-28T00:39:29;98959.22;;;17.25;100.00
45253;BME280;63171;50.520;30.486;2023-07-28T00:40:19;98967.34;;;17.24;100.00
45253;BME280;63171;50.520;30.486;2023-07-28T00:41:09;98966.34;;;17.25;100.00
45253;BME280;63171;50.520;30.486;2023-07-28T00:41:59;98966.34;;;17.33;100.00
45253;BME280;63171;50.520;30.486;2023-07-28T00:42:49;98969.38;;;17.38;100.00
45253;BME280;63171;50.520;30.486;2023-07-28T00:43:40;98962.09;;;17.40;100.00
45253;BME280;63171;50.520;30.486;2023-07-28T00:44:29;98962.09;;;17.40;100.00
45253;BME280;63171;50.520;30.486;2023-07-28T00:45:20;98964.22;;;17.36;100.00
45253;BME280;63171;50.520;30.486;2023-07-28T00:46:11;98961.38;;;17.30;100.00
45253;BME280;63171;50.520;30.486;2023-07-28T00:47:01;98961.03;;;17.25;100.00
45253;BME280;63171;50.520;30.486;2023-07-28T00:47:52;98971.09;;;17.21;100.00
45253;BME280;63171;50.520;30.486;2023-07-28T00:48:42;98962.34;;;17.21;100.00
45253;BME280;63171;50.520;30.486;2023-07-28T00:49:32;98959.38;;;17.24;100.00
45253;BME280;63171;50.520;30.486;2023-07-28T00:50:24;98951.94;;;17.27;100.00
45253;BME280;63171;50.520;30.486;2023-07-28T00:51:14;98960.56;;;17.29;100.00
45253;BME280;63171;50.520;30.486;2023-07-28T00:52:07;98964.69;;;17.32;100.00
45253;BME280;63171;50.520;30.486;2023-07-28T00:52:59;98952.94;;;17.34;100.00
45253;BME280;63171;50.520;30.486;2023-07-28T00:53:48;98951.00;;;17.36;100.00
45253;BME280;63171;50.520;30.486;2023-07-28T00:54:41;98953.94;;;17.33;100.00
45253;BME280;63171;50.520;30.486;2023-07-28T00:55:31;98955.59;;;17.26;100.00
45253;BME280;63171;50.520;30.486;2023-07-28T00:56:21;98948.97;;;17.30;100.00
45253;BME280;63171;50.520;30.486;2023-07-28T00:57:13;98948.00;;;17.31;100.00
45253;BME280;63171;50.520;30.486;2023-07-28T00:58:02;98954.94;;;17.32;100.00
45253;BME280;63171;50.520;30.486;2023-07-28T00:58:52;98954.44;;;17.29;100.00
45253;BME280;63171;50.520;30.486;2023-07-28T00:59:43;98956.97;;;17.38;100.00
45253;BME280;63171;50.520;30.486;2023-07-28T01:00:34;98956.28;;;17.36;100.00
45253;BME280;63171;50.520;30.486;2023-07-28T01:01:24;98951.34;;;17.41;100.00
45253;BME280;63171;50.520;30.486;2023-07-28T01:02:14;98961.06;;;17.33;100.00
45253;BME280;63171;50.520;30.486;2023-07-28T01:03:07;98952.91;;;17.18;100.00
45253;BME280;63171;50.520;30.486;2023-07-28T01:03:57;98958.69;;;17.13;100.00
45253;BME280;63171;50.520;30.486;2023-07-28T01:04:48;98963.16;;;17.13;100.00
45253;BME280;63171;50.520;30.486;2023-07-28T01:05:48;98959.22;;;17.25;100.00
45253;BME280;63171;50.520;30.486;2023-07-28T01:06:47;98958.06;;;17.28;100.00
45253;BME280;63171;50.520;30.486;2023-07-28T01:07:44;98960.22;;;17.32;100.00
45253;BME280;63171;50.520;30.486;2023-07-28T01:08:42;98959.91;;;17.27;100.00
45253;BME280;63171;50.520;30.486;2023-07-28T01:09:41;98964.97;;;17.12;100.00
45253;BME280;63171;50.520;30.486;2023-07-28T01:10:32;98965.94;;;17.11;100.00
45253;BME280;63171;50.520;30.486;2023-07-28T01:11:23;98963.94;;;17.05;100.00
45253;BME280;63171;50.520;30.486;2023-07-28T01:12:12;98971.91;;;17.13;100.00
45253;BME280;63171;50.520;30.486;2023-07-28T01:13:02;98970.59;;;17.09;100.00
45253;BME280;63171;50.520;30.486;2023-07-28T01:13:53;98964.75;;;16.98;100.00
45253;BME280;63171;50.520;30.486;2023-07-28T01:14:43;98972.97;;;16.95;100.00
45253;BME280;63171;50.520;30.486;2023-07-28T01:15:33;98962.69;;;16.92;100.00
45253;BME280;63171;50.520;30.486;2023-07-28T01:16:24;98967.50;;;16.88;100.00
45253;BME280;63171;50.520;30.486;2023-07-28T01:17:14;98971.47;;;16.92;100.00
45253;BME280;63171;50.520;30.486;2023-07-28T01:18:05;98976.59;;;16.94;100.00
45253;BME280;63171;50.520;30.486;2023-07-28T01:18:55;98963.69;;;16.91;100.00
45253;BME280;63171;50.520;30.486;2023-07-28T01:19:45;98963.53;;;16.92;100.00
45253;BME280;63171;50.520;30.486;2023-07-28T01:20:36;98964.84;;;16.88;100.00
45253;BME280;63171;50.520;30.486;2023-07-28T01:21:30;98969.97;;;16.90;100.00
45253;BME280;63171;50.520;30.486;2023-07-28T01:22:40;98969.50;;;16.94;100.00
45253;BME280;63171;50.520;30.486;2023-07-28T01:23:42;98972.28;;;16.84;100.00
45253;BME280;63171;50.520;30.486;2023-07-28T01:24:40;98979.66;;;16.81;100.00
45253;BME280;63171;50.520;30.486;2023-07-28T01:25:39;98975.53;;;16.78;100.00
45253;BME280;63171;50.520;30.486;2023-07-28T01:26:36;98981.22;;;16.92;100.00
45253;BME280;63171;50.520;30.486;2023-07-28T01:27:26;98983.72;;;16.93;100.00
45253;BME280;63171;50.520;30.486;2023-07-28T01:28:17;98984.03;;;16.90;100.00
45253;BME280;63171;50.520;30.486;2023-07-28T01:29:09;98988.81;;;16.87;100.00
45253;BME280;63171;50.520;30.486;2023-07-28T01:30:01;98983.53;;;16.87;100.00
45253;BME280;63171;50.520;30.486;2023-07-28T01:30:50;98986.72;;;16.98;100.00
45253;BME280;63171;50.520;30.486;2023-07-28T01:31:41;98989.47;;;16.89;100.00
45253;BME280;63171;50.520;30.486;2023-07-28T01:32:31;98993.44;;;16.93;100.00
45253;BME280;63171;50.520;30.486;2023-07-28T01:33:21;98990.97;;;16.91;100.00
45253;BME280;63171;50.520;30.486;2023-07-28T01:34:12;98993.44;;;16.84;100.00
45253;BME280;63171;50.520;30.486;2023-07-28T01:35:02;99005.19;;;16.90;100.00
45253;BME280;63171;50.520;30.486;2023-07-28T01:35:52;98994.44;;;16.92;100.00
45253;BME280;63171;50.520;30.486;2023-07-28T01:36:42;98999.13;;;16.98;100.00
45253;BME280;63171;50.520;30.486;2023-07-28T01:37:32;99007.34;;;16.95;100.00
45253;BME280;63171;50.520;30.486;2023-07-28T01:38:23;99001.06;;;16.96;100.00
45253;BME280;63171;50.520;30.486;2023-07-28T01:39:12;99010.53;;;16.98;100.00
45253;BME280;63171;50.520;30.486;2023-07-28T01:40:03;99002.94;;;17.03;100.00
45253;BME280;63171;50.520;30.486;2023-07-28T01:40:54;99012.44;;;17.14;100.00
45253;BME280;63171;50.520;30.486;2023-07-28T01:41:45;99016.56;;;17.17;100.00
45253;BME280;63171;50.520;30.486;2023-07-28T01:42:36;99006.47;;;17.12;100.00
45253;BME280;63171;50.520;30.486;2023-07-28T01:43:26;99006.97;;;17.16;100.00
45253;BME280;63171;50.520;30.486;2023-07-28T01:44:17;99004.66;;;17.12;100.00
45253;BME280;63171;50.520;30.486;2023-07-28T01:45:08;99002.31;;;17.09;100.00
45253;BME280;63171;50.520;30.486;2023-07-28T01:45:58;99013.75;;;17.10;100.00
45253;BME280;63171;50.520;30.486;2023-07-28T01:46:48;99015.84;;;17.06;100.00
45253;BME280;63171;50.520;30.486;2023-07-28T01:47:38;99008.56;;;17.00;100.00
45253;BME280;63171;50.520;30.486;2023-07-28T01:48:27;99022.88;;;16.90;100.00
45253;BME280;63171;50.520;30.486;2023-07-28T01:49:18;99014.44;;;16.94;100.00
45253;BME280;63171;50.520;30.486;2023-07-28T01:50:08;99017.09;;;16.94;100.00
45253;BME280;63171;50.520;30.486;2023-07-28T01:50:58;99014.25;;;16.88;100.00
45253;BME280;63171;50.520;30.486;2023-07-28T01:51:49;99013.13;;;16.90;100.00
45253;BME280;63171;50.520;30.486;2023-07-28T01:52:39;99014.09;;;16.89;100.00
45253;BME280;63171;50.520;30.486;2023-07-28T01:53:28;99011.47;;;16.89;100.00
45253;BME280;63171;50.520;30.486;2023-07-28T01:54:19;99017.91;;;16.87;100.00
45253;BME280;63171;50.520;30.486;2023-07-28T01:55:09;99016.59;;;16.91;100.00
45253;BME280;63171;50.520;30.486;2023-07-28T01:55:59;99019.28;;;16.99;100.00
45253;BME280;63171;50.520;30.486;2023-07-28T01:56:51;99018.47;;;16.98;100.00
45253;BME280;63171;50.520;30.486;2023-07-28T01:57:51;99019.47;;;16.97;100.00
45253;BME280;63171;50.520;30.486;2023-07-28T01:58:42;99024.03;;;16.95;100.00
45253;BME280;63171;50.520;30.486;2023-07-28T01:59:32;99019.81;;;17.02;100.00
45253;BME280;63171;50.520;30.486;2023-07-28T02:00:22;99019.47;;;17.05;100.00
45253;BME280;63171;50.520;30.486;2023-07-28T02:01:13;99020.97;;;17.08;100.00
45253;BME280;63171;50.520;30.486;2023-07-28T02:02:03;99029.28;;;17.13;100.00
45253;BME280;63171;50.520;30.486;2023-07-28T02:02:53;99027.09;;;17.08;100.00
45253;BME280;63171;50.520;30.486;2023-07-28T02:03:44;99025.66;;;17.14;100.00
45253;BME280;63171;50.520;30.486;2023-07-28T02:04:34;99017.06;;;17.12;100.00
45253;BME280;63171;50.520;30.486;2023-07-28T02:05:23;99024.50;;;17.17;100.00
45253;BME280;63171;50.520;30.486;2023-07-28T02:06:14;99012.75;;;17.11;100.00
45253;BME280;63171;50.520;30.486;2023-07-28T02:07:04;99023.59;;;17.00;100.00
45253;BME280;63171;50.520;30.486;2023-07-28T02:07:54;99020.91;;;16.92;100.00
45253;BME280;63171;50.520;30.486;2023-07-28T02:08:45;99011.63;;;16.88;100.00
45253;BME280;63171;50.520;30.486;2023-07-28T02:09:34;99015.00;;;16.98;100.00
45253;BME280;63171;50.520;30.486;2023-07-28T02:10:26;99015.34;;;17.03;100.00
45253;BME280;63171;50.520;30.486;2023-07-28T02:11:17;99016.09;;;16.95;100.00
45253;BME280;63171;50.520;30.486;2023-07-28T02:12:08;99024.03;;;16.95;100.00
45253;BME280;63171;50.520;30.486;2023-07-28T02:12:58;99018.47;;;16.98;100.00
45253;BME280;63171;50.520;30.486;2023-07-28T02:13:48;99018.09;;;16.93;100.00
45253;BME280;63171;50.520;30.486;2023-07-28T02:14:40;99019.56;;;16.88;100.00
45253;BME280;63171;50.520;30.486;2023-07-28T02:15:31;99027.22;;;16.99;100.00
45253;BME280;63171;50.520;30.486;2023-07-28T02:16:20;99020.06;;;16.91;100.00
45253;BME280;63171;50.520;30.486;2023-07-28T02:17:11;99020.56;;;16.95;100.00
45253;BME280;63171;50.520;30.486;2023-07-28T02:18:01;99022.59;;;17.01;100.00
45253;BME280;63171;50.520;30.486;2023-07-28T02:18:51;99028.88;;;17.00;100.00
45253;BME280;63171;50.520;30.486;2023-07-28T02:19:42;99027.25;;;17.07;100.00
45253;BME280;63171;50.520;30.486;2023-07-28T02:20:32;99035.03;;;17.08;100.00
45253;BME280;63171;50.520;30.486;2023-07-28T02:21:22;99031.28;;;17.11;100.00
45253;BME280;63171;50.520;30.486;2023-07-28T02:22:13;99034.06;;;17.09;100.00
45253;BME280;63171;50.520;30.486;2023-07-28T02:23:03;99034.59;;;17.13;100.00
45253;BME280;63171;50.520;30.486;2023-07-28T02:23:53;99040.38;;;17.17;100.00
45253;BME280;63171;50.520;30.486;2023-07-28T02:24:44;99037.91;;;17.15;100.00
45253;BME280;63171;50.520;30.486;2023-07-28T02:25:33;99037.00;;;17.06;100.00
45253;BME280;63171;50.520;30.486;2023-07-28T02:26:23;99037.16;;;17.05;100.00
45253;BME280;63171;50.520;30.486;2023-07-28T02:27:16;99045.78;;;17.07;100.00
45253;BME280;63171;50.520;30.486;2023-07-28T02:28:09;99045.09;;;17.05;100.00
45253;BME280;63171;50.520;30.486;2023-07-28T02:28:59;99046.56;;;16.99;100.00
45253;BME280;63171;50.520;30.486;2023-07-28T02:29:50;99043.09;;;16.99;100.00
45253;BME280;63171;50.520;30.486;2023-07-28T02:30:39;99042.13;;;17.00;100.00
45253;BME280;63171;50.520;30.486;2023-07-28T02:31:30;99046.75;;;17.06;100.00
45253;BME280;63171;50.520;30.486;2023-07-28T02:32:20;99042.00;;;17.09;100.00
45253;BME280;63171;50.520;30.486;2023-07-28T02:33:10;99046.34;;;17.19;100.00
45253;BME280;63171;50.520;30.486;2023-07-28T02:34:01;99047.69;;;17.23;100.00
45253;BME280;63171;50.520;30.486;2023-07-28T02:34:51;99050.63;;;17.20;100.00
45253;BME280;63171;50.520;30.486;2023-07-28T02:35:40;99051.28;;;17.13;100.00
45253;BME280;63171;50.520;30.486;2023-07-28T02:36:32;99047.97;;;17.11;100.00
45253;BME280;63171;50.520;30.486;2023-07-28T02:37:22;99053.78;;;17.15;100.00
45253;BME280;63171;50.520;30.486;2023-07-28T02:38:12;99049.31;;;17.16;100.00
45253;BME280;63171;50.520;30.486;2023-07-28T02:39:04;99054.50;;;17.25;100.00
45253;BME280;63171;50.520;30.486;2023-07-28T02:39:54;99054.16;;;17.28;100.00
45253;BME280;63171;50.520;30.486;2023-07-28T02:40:44;99053.25;;;17.11;100.00
45253;BME280;63171;50.520;30.486;2023-07-28T02:41:34;99056.16;;;17.00;100.00
45253;BME280;63171;50.520;30.486;2023-07-28T02:42:25;99056.84;;;17.02;100.00
45253;BME280;63171;50.520;30.486;2023-07-28T02:43:15;99060.06;;;17.14;100.00
45253;BME280;63171;50.520;30.486;2023-07-28T02:44:06;99054.53;;;17.07;100.00
45253;BME280;63171;50.520;30.486;2023-07-28T02:44:56;99049.06;;;17.01;100.00
45253;BME280;63171;50.520;30.486;2023-07-28T02:45:48;99045.91;;;16.97;100.00
45253;BME280;63171;50.520;30.486;2023-07-28T02:46:38;99054.75;;;16.88;100.00
45253;BME280;63171;50.520;30.486;2023-07-28T02:47:28;99050.16;;;16.90;100.00
45253;BME280;63171;50.520;30.486;2023-07-28T02:48:18;99051.59;;;16.84;100.00
45253;BME280;63171;50.520;30.486;2023-07-28T02:49:08;99057.72;;;16.85;100.00
45253;BME280;63171;50.520;30.486;2023-07-28T02:49:58;99057.41;;;16.88;100.00
45253;BME280;63171;50.520;30.486;2023-07-28T02:50:51;99057.91;;;16.92;100.00
45253;BME280;63171;50.520;30.486;2023-07-28T02:51:41;99059.06;;;16.89;100.00
45253;BME280;63171;50.520;30.486;2023-07-28T02:52:31;99058.41;;;16.87;100.00
45253;BME280;63171;50.520;30.486;2023-07-28T02:53:21;99059.91;;;16.90;100.00
45253;BME280;63171;50.520;30.486;2023-07-28T02:54:11;99056.50;;;16.97;100.00
45253;BME280;63171;50.520;30.486;2023-07-28T02:55:00;99059.66;;;17.01;100.00
45253;BME280;63171;50.520;30.486;2023-07-28T02:55:52;99072.22;;;17.07;100.00
45253;BME280;63171;50.520;30.486;2023-07-28T02:56:41;99060.00;;;17.06;100.00
45253;BME280;63171;50.520;30.486;2023-07-28T02:57:36;99064.28;;;17.07;100.00
45253;BME280;63171;50.520;30.486;2023-07-28T02:58:27;99059.81;;;16.99;100.00
45253;BME280;63171;50.520;30.486;2023-07-28T02:59:17;99057.31;;;16.98;100.00
45253;BME280;63171;50.520;30.486;2023-07-28T03:00:07;99060.72;;;16.90;100.00
45253;BME280;63171;50.520;30.486;2023-07-28T03:01:00;99071.22;;;17.00;100.00
45253;BME280;63171;50.520;30.486;2023-07-28T03:01:57;99063.78;;;17.03;100.00
45253;BME280;63171;50.520;30.486;2023-07-28T03:02:47;99068.19;;;16.95;100.00
45253;BME280;63171;50.520;30.486;2023-07-28T03:03:37;99068.56;;;17.00;100.00
45253;BME280;63171;50.520;30.486;2023-07-28T03:04:27;99061.66;;;17.07;100.00
45253;BME280;63171;50.520;30.486;2023-07-28T03:05:43;99064.78;;;17.02;100.00
45253;BME280;63171;50.520;30.486;2023-07-28T03:06:42;99070.72;;;17.04;100.00
45253;BME280;63171;50.520;30.486;2023-07-28T03:07:32;99067.25;;;17.04;100.00
45253;BME280;63171;50.520;30.486;2023-07-28T03:08:27;99070.25;;;17.09;100.00
45253;BME280;63171;50.520;30.486;2023-07-28T03:09:31;99069.97;;;17.12;100.00
45253;BME280;63171;50.520;30.486;2023-07-28T03:10:25;99068.34;;;17.19;100.00
45253;BME280;63171;50.520;30.486;2023-07-28T03:11:16;99073.84;;;17.26;100.00
45253;BME280;63171;50.520;30.486;2023-07-28T03:12:07;99063.03;;;17.11;100.00
45253;BME280;63171;50.520;30.486;2023-07-28T03:12:58;99072.78;;;17.10;100.00
45253;BME280;63171;50.520;30.486;2023-07-28T03:13:49;99072.22;;;17.07;100.00
45253;BME280;63171;50.520;30.486;2023-07-28T03:14:39;99068.75;;;17.06;100.00
45253;BME280;63171;50.520;30.486;2023-07-28T03:15:29;99072.91;;;17.09;100.00
45253;BME280;63171;50.520;30.486;2023-07-28T03:16:20;99068.91;;;17.05;100.00
45253;BME280;63171;50.520;30.486;2023-07-28T03:17:10;99064.69;;;17.12;100.00
45253;BME280;63171;50.520;30.486;2023-07-28T03:18:00;99072.97;;;17.17;100.00
45253;BME280;63171;50.520;30.486;2023-07-28T03:18:51;99074.84;;;17.25;100.00
45253;BME280;63171;50.520;30.486;2023-07-28T03:19:41;99068.34;;;17.19;100.00
45253;BME280;63171;50.520;30.486;2023-07-28T03:20:33;99076.50;;;17.26;100.00
45253;BME280;63171;50.520;30.486;2023-07-28T03:21:23;99073.03;;;17.25;100.00
45253;BME280;63171;50.520;30.486;2023-07-28T03:22:12;99074.19;;;17.31;100.00
45253;BME280;63171;50.520;30.486;2023-07-28T03:23:03;99071.06;;;17.35;100.00
45253;BME280;63171;50.520;30.486;2023-07-28T03:23:53;99073.03;;;17.33;100.00
45253;BME280;63171;50.520;30.486;2023-07-28T03:24:43;99075.53;;;17.35;100.00
45253;BME280;63171;50.520;30.486;2023-07-28T03:25:36;99081.16;;;17.32;100.00
45253;BME280;63171;50.520;30.486;2023-07-28T03:26:25;99076.84;;;17.31;100.00
45253;BME280;63171;50.520;30.486;2023-07-28T03:27:15;99081.47;;;17.29;100.00
45253;BME280;63171;50.520;30.486;2023-07-28T03:28:08;99067.81;;;17.16;100.00
45253;BME280;63171;50.520;30.486;2023-07-28T03:28:58;99079.09;;;17.18;100.00
45253;BME280;63171;50.520;30.486;2023-07-28T03:29:48;99074.63;;;17.18;100.00
45253;BME280;63171;50.520;30.486;2023-07-28T03:30:41;99075.25;;;17.12;100.00
45253;BME280;63171;50.520;30.486;2023-07-28T03:31:32;99080.56;;;17.20;100.00
45253;BME280;63171;50.520;30.486;2023-07-28T03:32:25;99083.22;;;17.20;100.00
45253;BME280;63171;50.520;30.486;2023-07-28T03:33:15;99077.59;;;17.15;100.00
45253;BME280;63171;50.520;30.486;2023-07-28T03:34:05;99075.97;;;17.22;100.00
45253;BME280;63171;50.520;30.486;2023-07-28T03:34:55;99075.66;;;17.25;100.00
45253;BME280;63171;50.520;30.486;2023-07-28T03:35:45;99075.97;;;17.22;100.00
45253;BME280;63171;50.520;30.486;2023-07-28T03:36:35;99081.88;;;17.16;100.00
45253;BME280;63171;50.520;30.486;2023-07-28T03:37:26;99080.91;;;17.17;100.00
45253;BME280;63171;50.520;30.486;2023-07-28T03:38:15;99084.72;;;17.23;100.00
45253;BME280;63171;50.520;30.486;2023-07-28T03:39:05;99085.94;;;17.28;100.00
45253;BME280;63171;50.520;30.486;2023-07-28T03:39:55;99087.25;;;17.32;100.00
45253;BME280;63171;50.520;30.486;2023-07-28T03:40:51;99078.72;;;17.38;100.00
45253;BME280;63171;50.520;30.486;2023-07-28T03:41:42;99084.84;;;17.39;100.00
45253;BME280;63171;50.520;30.486;2023-07-28T03:42:32;99091.63;;;17.41;100.00
45253;BME280;63171;50.520;30.486;2023-07-28T03:43:23;99092.09;;;17.37;100.00
45253;BME280;63171;50.520;30.486;2023-07-28T03:44:14;99093.88;;;17.28;100.00
45253;BME280;63171;50.520;30.486;2023-07-28T03:45:06;99087.19;;;17.16;100.00
45253;BME280;63171;50.520;30.486;2023-07-28T03:45:57;99096.16;;;17.23;100.00
45253;BME280;63171;50.520;30.486;2023-07-28T03:46:48;99092.97;;;17.20;100.00
45253;BME280;63171;50.520;30.486;2023-07-28T03:47:38;99090.00;;;17.23;100.00
45253;BME280;63171;50.520;30.486;2023-07-28T03:48:29;99092.22;;;17.27;100.00
45253;BME280;63171;50.520;30.486;2023-07-28T03:49:19;99091.56;;;17.33;100.00
45253;BME280;63171;50.520;30.486;2023-07-28T03:50:09;99095.59;;;17.37;100.00
45253;BME280;63171;50.520;30.486;2023-07-28T03:51:00;99096.56;;;17.36;100.00
45253;BME280;63171;50.520;30.486;2023-07-28T03:51:50;99095.88;;;17.34;100.00
45253;BME280;63171;50.520;30.486;2023-07-28T03:52:40;99095.03;;;17.34;100.00
45253;BME280;63171;50.520;30.486;2023-07-28T03:53:30;99095.47;;;17.21;100.00
45253;BME280;63171;50.520;30.486;2023-07-28T03:54:20;99090.00;;;17.23;100.00
45253;BME280;63171;50.520;30.486;2023-07-28T03:55:10;99096.16;;;17.23;100.00
45253;BME280;63171;50.520;30.486;2023-07-28T03:56:01;99097.94;;;17.23;100.00
45253;BME280;63171;50.520;30.486;2023-07-28T03:56:52;99092.31;;;17.18;100.00
45253;BME280;63171;50.520;30.486;2023-07-28T03:57:43;99096.28;;;17.22;100.00
45253;BME280;63171;50.520;30.486;2023-07-28T03:58:35;99085.94;;;17.28;100.00
45253;BME280;63171;50.520;30.486;2023-07-28T03:59:25;99087.25;;;17.24;100.00
45253;BME280;63171;50.520;30.486;2023-07-28T04:00:16;99086.81;;;17.11;100.00
45253;BME280;63171;50.520;30.486;2023-07-28T04:01:06;99086.50;;;17.14;100.00
45253;BME280;63171;50.520;30.486;2023-07-28T04:01:57;99084.88;;;17.21;100.00
45253;BME280;63171;50.520;30.486;2023-07-28T04:02:47;99084.06;;;17.21;100.00
45253;BME280;63171;50.520;30.486;2023-07-28T04:03:37;99081.25;;;17.22;100.00
45253;BME280;63171;50.520;30.486;2023-07-28T04:04:28;99079.31;;;17.32;100.00
45253;BME280;63171;50.520;30.486;2023-07-28T04:05:18;99082.19;;;17.39;100.00
45253;BME280;63171;50.520;30.486;2023-07-28T04:06:10;99088.03;;;17.51;100.00
45253;BME280;63171;50.520;30.486;2023-07-28T04:07:01;99086.25;;;17.59;100.00
45253;BME280;63171;50.520;30.486;2023-07-28T04:07:50;99091.56;;;17.67;100.00
45253;BME280;63171;50.520;30.486;2023-07-28T04:08:40;99083.63;;;17.67;100.00
45253;BME280;63171;50.520;30.486;2023-07-28T04:09:31;99089.81;;;17.76;100.00
45253;BME280;63171;50.520;30.486;2023-07-28T04:10:21;99086.03;;;17.79;100.00
45253;BME280;63171;50.520;30.486;2023-07-28T04:11:11;99093.78;;;17.72;100.00
45253;BME280;63171;50.520;30.486;2023-07-28T04:12:02;99090.97;;;17.73;100.00
45253;BME280;63171;50.520;30.486;2023-07-28T04:12:53;99089.50;;;17.79;100.00
45253;BME280;63171;50.520;30.486;2023-07-28T04:13:44;99093.16;;;17.78;100.00
45253;BME280;63171;50.520;30.486;2023-07-28T04:14:35;99096.03;;;17.67;100.00
45253;BME280;63171;50.520;30.486;2023-07-28T04:15:26;99102.13;;;17.59;100.00
45253;BME280;63171;50.520;30.486;2023-07-28T04:16:15;99100.63;;;17.57;100.00
45253;BME280;63171;50.520;30.486;2023-07-28T04:17:07;99098.13;;;17.55;100.00
45253;BME280;63171;50.520;30.486;2023-07-28T04:17:57;99094.84;;;17.61;100.00
45253;BME280;63171;50.520;30.486;2023-07-28T04:18:48;99093.50;;;17.57;100.00
45253;BME280;63171;50.520;30.486;2023-07-28T04:19:38;99091.81;;;17.48;100.00
45253;BME280;63171;50.520;30.486;2023-07-28T04:20:28;99088.50;;;17.46;100.00
45253;BME280;63171;50.520;30.486;2023-07-28T04:21:18;99093.53;;;17.31;100.00
45253;BME280;63171;50.520;30.486;2023-07-28T04:22:09;99092.22;;;17.35;100.00
45253;BME280;63171;50.520;30.486;2023-07-28T04:22:59;99091.72;;;17.32;100.00
45253;BME280;63171;50.520;30.486;2023-07-28T04:23:53;99086.19;;;17.17;100.00
45253;BME280;63171;50.520;30.486;2023-07-28T04:24:43;99092.16;;;17.19;100.00
45253;BME280;63171;50.520;30.486;2023-07-28T04:25:33;99097.13;;;17.22;100.00